sensor_id;sensor_type;location;lat;lon;timestamp;temperature;humidity
52073;DHT22;38074;51.232;6.826;2023-05-14T00:00:15;23.70;47.40
52073;DHT22;38074;51.232;6.826;2023-05-14T00:07:31;23.70;47.40
52073;DHT22;38074;51.232;6.826;2023-05-14T00:14:47;23.70;47.40
52073;DHT22;38074;51.232;6.826;2023-05-14T00:22:02;23.70;47.40
52073;DHT22;38074;51.232;6.826;2023-05-14T00:29:18;23.70;47.40
52073;DHT22;38074;51.232;6.826;2023-05-14T00:36:33;23.70;47.40
52073;DHT22;38074;51.232;6.826;2023-05-14T00:43:49;23.70;47.30
52073;DHT22;38074;51.232;6.826;2023-05-14T00:51:04;23.70;47.30
52073;DHT22;38074;51.232;6.826;2023-05-14T00:58:21;23.70;47.30
52073;DHT22;38074;51.232;6.826;2023-05-14T01:05:48;23.70;47.30
52073;DHT22;38074;51.232;6.826;2023-05-14T01:13:19;23.80;47.30
52073;DHT22;38074;51.232;6.826;2023-05-14T01:20:37;23.80;47.30
52073;DHT22;38074;51.232;6.826;2023-05-14T01:35:18;23.70;47.20
52073;DHT22;38074;51.232;6.826;2023-05-14T01:42:34;23.70;47.20
52073;DHT22;38074;51.232;6.826;2023-05-14T01:49:50;23.80;47.20
52073;DHT22;38074;51.232;6.826;2023-05-14T01:57:06;23.80;47.20
52073;DHT22;38074;51.232;6.826;2023-05-14T02:04:21;23.80;47.20
52073;DHT22;38074;51.232;6.826;2023-05-14T02:11:36;23.80;47.10
52073;DHT22;38074;51.232;6.826;2023-05-14T02:18:52;23.80;47.10
52073;DHT22;38074;51.232;6.826;2023-05-14T02:26:09;23.80;47.10
52073;DHT22;38074;51.232;6.826;2023-05-14T02:33:24;23.80;47.00
52073;DHT22;38074;51.232;6.826;2023-05-14T02:40:40;23.80;47.00
52073;DHT22;38074;51.232;6.826;2023-05-14T02:47:55;23.80;47.00
52073;DHT22;38074;51.232;6.826;2023-05-14T02:55:11;23.80;46.90
52073;DHT22;38074;51.232;6.826;2023-05-14T03:02:26;23.70;46.90
52073;DHT22;38074;51.232;6.826;2023-05-14T03:09:42;23.80;46.90
52073;DHT22;38074;51.232;6.826;2023-05-14T03:16:57;23.80;46.90
52073;DHT22;38074;51.232;6.826;2023-05-14T03:24:13;23.80;46.80
52073;DHT22;38074;51.232;6.826;2023-05-14T03:31:28;23.70;46.80
52073;DHT22;38074;51.232;6.826;2023-05-14T03:38:44;23.80;46.80
52073;DHT22;38074;51.232;6.826;2023-05-14T03:45:59;23.80;46.80
52073;DHT22;38074;51.232;6.826;2023-05-14T03:53:15;23.80;46.70
52073;DHT22;38074;51.232;6.826;2023-05-14T04:00:31;23.80;46.70
52073;DHT22;38074;51.232;6.826;2023-05-14T04:07:46;23.80;46.70
52073;DHT22;38074;51.232;6.826;2023-05-14T04:15:02;23.80;46.60
52073;DHT22;38074;51.232;6.826;2023-05-14T04:22:18;23.80;46.60
52073;DHT22;38074;51.232;6.826;2023-05-14T04:29:33;23.80;46.60
52073;DHT22;38074;51.232;6.826;2023-05-14T04:36:49;23.80;46.50
52073;DHT22;38074;51.232;6.826;2023-05-14T04:44:05;23.80;46.50
52073;DHT22;38074;51.232;6.826;2023-05-14T04:51:22;23.80;46.40
52073;DHT22;38074;51.232;6.826;2023-05-14T04:58:37;23.80;46.50
52073;DHT22;38074;51.232;6.826;2023-05-14T05:05:53;23.80;46.50
52073;DHT22;38074;51.232;6.826;2023-05-14T05:13:08;23.80;46.40
52073;DHT22;38074;51.232;6.826;2023-05-14T05:20:24;23.80;46.50
52073;DHT22;38074;51.232;6.826;2023-05-14T05:27:39;23.80;46.40
52073;DHT22;38074;51.232;6.826;2023-05-14T05:34:55;23.80;46.40
52073;DHT22;38074;51.232;6.826;2023-05-14T05:42:11;23.90;46.50
52073;DHT22;38074;51.232;6.826;2023-05-14T05:49:26;23.80;46.40
52073;DHT22;38074;51.232;6.826;2023-05-14T05:56:42;23.90;46.50
52073;DHT22;38074;51.232;6.826;2023-05-14T06:03:58;23.90;46.50
52073;DHT22;38074;51.232;6.826;2023-05-14T06:11:13;24.10;46.50
52073;DHT22;38074;51.232;6.826;2023-05-14T06:18:29;24.10;46.30
52073;DHT22;38074;51.232;6.826;2023-05-14T06:25:45;24.20;46.30
52073;DHT22;38074;51.232;6.826;2023-05-14T06:33:00;24.20;46.10
52073;DHT22;38074;51.232;6.826;2023-05-14T06:40:17;24.20;46.10
52073;DHT22;38074;51.232;6.826;2023-05-14T06:47:32;24.30;46.10
52073;DHT22;38074;51.232;6.826;2023-05-14T06:54:48;24.40;46.00
52073;DHT22;38074;51.232;6.826;2023-05-14T07:02:03;24.40;46.00
52073;DHT22;38074;51.232;6.826;2023-05-14T07:09:19;24.50;46.10
52073;DHT22;38074;51.232;6.826;2023-05-14T07:16:35;24.50;46.10
52073;DHT22;38074;51.232;6.826;2023-05-14T07:23:50;24.60;46.10
52073;DHT22;38074;51.232;6.826;2023-05-14T07:31:06;24.60;46.10
52073;DHT22;38074;51.232;6.826;2023-05-14T07:38:23;24.60;46.00
52073;DHT22;38074;51.232;6.826;2023-05-14T07:45:38;24.60;46.00
52073;DHT22;38074;51.232;6.826;2023-05-14T07:52:55;24.70;46.10
52073;DHT22;38074;51.232;6.826;2023-05-14T08:00:11;24.70;46.10
52073;DHT22;38074;51.232;6.826;2023-05-14T08:07:27;24.70;46.10
52073;DHT22;38074;51.232;6.826;2023-05-14T08:14:44;24.80;46.40
52073;DHT22;38074;51.232;6.826;2023-05-14T08:29:19;24.90;46.60
52073;DHT22;38074;51.232;6.826;2023-05-14T08:36:35;24.90;46.60
52073;DHT22;38074;51.232;6.826;2023-05-14T08:51:26;24.80;45.90
52073;DHT22;38074;51.232;6.826;2023-05-14T08:58:42;24.70;46.10
52073;DHT22;38074;51.232;6.826;2023-05-14T09:05:58;24.60;45.80
52073;DHT22;38074;51.232;6.826;2023-05-14T09:13:14;24.50;45.80
52073;DHT22;38074;51.232;6.826;2023-05-14T09:20:30;24.40;45.60
52073;DHT22;38074;51.232;6.826;2023-05-14T09:27:46;24.40;45.70
52073;DHT22;38074;51.232;6.826;2023-05-14T09:35:19;24.40;45.70
52073;DHT22;38074;51.232;6.826;2023-05-14T09:42:35;24.50;46.10
52073;DHT22;38074;51.232;6.826;2023-05-14T09:49:51;24.60;46.10
52073;DHT22;38074;51.232;6.826;2023-05-14T09:57:07;24.70;46.10
52073;DHT22;38074;51.232;6.826;2023-05-14T10:04:22;24.70;46.00
52073;DHT22;38074;51.232;6.826;2023-05-14T10:11:42;24.70;46.00
52073;DHT22;38074;51.232;6.826;2023-05-14T10:19:07;24.50;45.70
52073;DHT22;38074;51.232;6.826;2023-05-14T10:26:22;24.40;45.30
52073;DHT22;38074;51.232;6.826;2023-05-14T10:33:56;24.40;45.10
52073;DHT22;38074;51.232;6.826;2023-05-14T10:41:15;24.40;44.70
52073;DHT22;38074;51.232;6.826;2023-05-14T10:48:38;24.40;45.00
52073;DHT22;38074;51.232;6.826;2023-05-14T10:55:55;24.40;45.10
52073;DHT22;38074;51.232;6.826;2023-05-14T11:03:11;24.40;45.20
52073;DHT22;38074;51.232;6.826;2023-05-14T11:10:27;24.40;45.20
52073;DHT22;38074;51.232;6.826;2023-05-14T11:17:45;24.40;45.00
52073;DHT22;38074;51.232;6.826;2023-05-14T11:25:01;24.30;45.10
52073;DHT22;38074;51.232;6.826;2023-05-14T11:32:17;24.30;45.00
52073;DHT22;38074;51.232;6.826;2023-05-14T11:39:34;24.30;44.90
52073;DHT22;38074;51.232;6.826;2023-05-14T11:46:56;24.30;44.90
52073;DHT22;38074;51.232;6.826;2023-05-14T11:54:13;24.30;44.70
52073;DHT22;38074;51.232;6.826;2023-05-14T12:01:28;24.30;44.70
52073;DHT22;38074;51.232;6.826;2023-05-14T12:08:48;24.30;44.70
52073;DHT22;38074;51.232;6.826;2023-05-14T12:16:04;24.30;44.60
52073;DHT22;38074;51.232;6.826;2023-05-14T12:23:27;24.30;44.50
52073;DHT22;38074;51.232;6.826;2023-05-14T12:30:44;24.30;44.40
52073;DHT22;38074;51.232;6.826;2023-05-14T12:38:00;24.20;44.30
52073;DHT22;38074;51.232;6.826;2023-05-14T12:45:16;24.30;44.30
52073;DHT22;38074;51.232;6.826;2023-05-14T12:52:31;24.30;44.30
52073;DHT22;38074;51.232;6.826;2023-05-14T12:59:47;24.30;44.20
52073;DHT22;38074;51.232;6.826;2023-05-14T13:07:02;24.30;44.10
52073;DHT22;38074;51.232;6.826;2023-05-14T13:14:18;24.30;44.00
52073;DHT22;38074;51.232;6.826;2023-05-14T13:21:33;24.30;44.00
52073;DHT22;38074;51.232;6.826;2023-05-14T13:28:49;24.30;44.10
52073;DHT22;38074;51.232;6.826;2023-05-14T13:36:05;24.30;44.00
52073;DHT22;38074;51.232;6.826;2023-05-14T13:43:22;24.30;44.00
52073;DHT22;38074;51.232;6.826;2023-05-14T13:50:37;24.30;44.10
52073;DHT22;38074;51.232;6.826;2023-05-14T13:57:53;24.30;44.10
52073;DHT22;38074;51.232;6.826;2023-05-14T14:05:09;24.30;44.10
52073;DHT22;38074;51.232;6.826;2023-05-14T14:12:24;24.40;44.10
52073;DHT22;38074;51.232;6.826;2023-05-14T14:19:40;24.30;44.10
52073;DHT22;38074;51.232;6.826;2023-05-14T14:26:56;24.30;43.90
52073;DHT22;38074;51.232;6.826;2023-05-14T14:34:11;24.30;43.70
52073;DHT22;38074;51.232;6.826;2023-05-14T14:41:27;24.20;43.50
52073;DHT22;38074;51.232;6.826;2023-05-14T14:48:42;24.20;43.40
52073;DHT22;38074;51.232;6.826;2023-05-14T14:55:58;24.20;43.40
52073;DHT22;38074;51.232;6.826;2023-05-14T15:03:14;24.20;43.30
52073;DHT22;38074;51.232;6.826;2023-05-14T15:10:31;24.20;43.20
52073;DHT22;38074;51.232;6.826;2023-05-14T15:17:47;24.20;43.10
52073;DHT22;38074;51.232;6.826;2023-05-14T15:25:02;24.30;43.20
52073;DHT22;38074;51.232;6.826;2023-05-14T15:32:18;24.20;43.10
52073;DHT22;38074;51.232;6.826;2023-05-14T15:39:35;24.20;43.00
52073;DHT22;38074;51.232;6.826;2023-05-14T15:46:50;24.20;43.00
52073;DHT22;38074;51.232;6.826;2023-05-14T15:54:06;24.20;43.10
52073;DHT22;38074;51.232;6.826;2023-05-14T16:01:22;24.30;43.10
52073;DHT22;38074;51.232;6.826;2023-05-14T16:08:37;24.30;43.10
52073;DHT22;38074;51.232;6.826;2023-05-14T16:15:53;24.20;43.00
52073;DHT22;38074;51.232;6.826;2023-05-14T16:23:09;24.20;43.00
52073;DHT22;38074;51.232;6.826;2023-05-14T16:30:24;24.30;43.10
52073;DHT22;38074;51.232;6.826;2023-05-14T16:37:40;24.30;43.10
52073;DHT22;38074;51.232;6.826;2023-05-14T16:44:55;24.30;43.10
52073;DHT22;38074;51.232;6.826;2023-05-14T16:52:11;24.30;43.10
52073;DHT22;38074;51.232;6.826;2023-05-14T16:59:26;24.20;43.10
52073;DHT22;38074;51.232;6.826;2023-05-14T17:06:42;24.20;43.10
52073;DHT22;38074;51.232;6.826;2023-05-14T17:13:57;24.30;43.20
52073;DHT22;38074;51.232;6.826;2023-05-14T17:21:13;24.30;43.30
52073;DHT22;38074;51.232;6.826;2023-05-14T17:28:28;24.40;43.30
52073;DHT22;38074;51.232;6.826;2023-05-14T17:35:44;24.40;43.00
52073;DHT22;38074;51.232;6.826;2023-05-14T17:43:00;24.50;42.90
52073;DHT22;38074;51.232;6.826;2023-05-14T17:50:16;24.60;42.80
52073;DHT22;38074;51.232;6.826;2023-05-14T17:57:31;24.60;42.40
52073;DHT22;38074;51.232;6.826;2023-05-14T18:04:47;24.60;42.20
52073;DHT22;38074;51.232;6.826;2023-05-14T18:12:02;24.60;42.20
52073;DHT22;38074;51.232;6.826;2023-05-14T18:19:18;24.60;42.10
52073;DHT22;38074;51.232;6.826;2023-05-14T18:26:34;24.50;41.70
52073;DHT22;38074;51.232;6.826;2023-05-14T18:33:50;24.40;41.10
52073;DHT22;38074;51.232;6.826;2023-05-14T18:41:05;24.30;41.00
52073;DHT22;38074;51.232;6.826;2023-05-14T18:48:21;24.20;40.80
52073;DHT22;38074;51.232;6.826;2023-05-14T18:55:37;24.20;40.90
52073;DHT22;38074;51.232;6.826;2023-05-14T19:02:52;24.20;41.00
52073;DHT22;38074;51.232;6.826;2023-05-14T19:10:09;24.30;41.00
52073;DHT22;38074;51.232;6.826;2023-05-14T19:17:25;24.30;40.80
52073;DHT22;38074;51.232;6.826;2023-05-14T19:24:42;24.30;40.70
52073;DHT22;38074;51.232;6.826;2023-05-14T19:31:57;24.20;40.70
52073;DHT22;38074;51.232;6.826;2023-05-14T19:39:13;24.20;40.90
52073;DHT22;38074;51.232;6.826;2023-05-14T19:46:28;24.20;40.90
52073;DHT22;38074;51.232;6.826;2023-05-14T19:53:44;24.20;41.00
52073;DHT22;38074;51.232;6.826;2023-05-14T20:01:00;24.20;41.00
52073;DHT22;38074;51.232;6.826;2023-05-14T20:08:15;24.20;41.00
52073;DHT22;38074;51.232;6.826;2023-05-14T20:15:31;24.10;41.30
52073;DHT22;38074;51.232;6.826;2023-05-14T20:22:46;24.10;42.10
52073;DHT22;38074;51.232;6.826;2023-05-14T20:30:02;24.10;42.40
52073;DHT22;38074;51.232;6.826;2023-05-14T20:37:18;24.10;43.00
52073;DHT22;38074;51.232;6.826;2023-05-14T20:44:38;24.00;43.10
52073;DHT22;38074;51.232;6.826;2023-05-14T20:51:54;24.20;43.20
52073;DHT22;38074;51.232;6.826;2023-05-14T20:59:09;24.30;43.80
52073;DHT22;38074;51.232;6.826;2023-05-14T21:06:25;24.20;44.10
52073;DHT22;38074;51.232;6.826;2023-05-14T21:13:42;24.20;44.30
52073;DHT22;38074;51.232;6.826;2023-05-14T21:20:58;24.20;44.40
52073;DHT22;38074;51.232;6.826;2023-05-14T21:28:14;24.20;44.40
52073;DHT22;38074;51.232;6.826;2023-05-14T21:35:29;24.10;44.40
52073;DHT22;38074;51.232;6.826;2023-05-14T21:42:45;24.10;44.30
52073;DHT22;38074;51.232;6.826;2023-05-14T21:50:00;24.10;44.30
52073;DHT22;38074;51.232;6.826;2023-05-14T21:57:16;24.10;44.30
52073;DHT22;38074;51.232;6.826;2023-05-14T22:04:32;24.10;44.30
52073;DHT22;38074;51.232;6.826;2023-05-14T22:11:47;24.10;44.30
52073;DHT22;38074;51.232;6.826;2023-05-14T22:19:03;24.10;44.40
52073;DHT22;38074;51.232;6.826;2023-05-14T22:26:19;24.10;44.50
52073;DHT22;38074;51.232;6.826;2023-05-14T22:33:35;24.10;44.50
52073;DHT22;38074;51.232;6.826;2023-05-14T22:40:51;24.10;44.50
52073;DHT22;38074;51.232;6.826;2023-05-14T22:48:06;24.10;44.60
52073;DHT22;38074;51.232;6.826;2023-05-14T22:55:22;24.10;44.60
52073;DHT22;38074;51.232;6.826;2023-05-14T23:02:37;24.10;44.70
52073;DHT22;38074;51.232;6.826;2023-05-14T23:09:53;24.10;44.80
52073;DHT22;38074;51.232;6.826;2023-05-14T23:17:09;24.10;44.80
52073;DHT22;38074;51.232;6.826;2023-05-14T23:24:24;24.10;44.80
52073;DHT22;38074;51.232;6.826;2023-05-14T23:31:40;24.00;44.80
52073;DHT22;38074;51.232;6.826;2023-05-14T23:38:57;24.10;44.90
52073;DHT22;38074;51.232;6.826;2023-05-14T23:46:13;24.00;44.90
52073;DHT22;38074;51.232;6.826;2023-05-14T23:53:29;24.00;45.00
